Airfield :
LOGIN :

Register | Disclaimer

   EN    FR    IT 

 










Legend :    VFR   Marginal VFR   IFR   Intensive IFR   Very Intensive IFR
Visi :
Ceiling :
>= 8 km
>= 3000ft
5 to 8 km
1000 to 3000 ft
1500m to 5 km
500 to 1000 ft
800 to 1500m
200 to 500 ft
< 800m
< 200 ft
Symbols :   Thunderstorms  Fog  Heavy snow  Heavy precipitations  Wind > 20 kt
SIGMETs :     Misc.  Thunderstorms  Icing  Turbulence  Mountain Waves  Volcanic Ashes






- Airport Elevation : 286 ft
- IATA code : FFD


EGVA - RAF Fairford

CURRENT METAR :
  • 231856Z AUTO 00000KT 9999 -RA FEW014 SCT036 12/11 A2975 RMK AO2 DZB17E18RAB18E29DZB29E31RAB31 SLP079 P0001 T01160113 $

EXPIRED METARs :
  • 231852Z AUTO 00000KT 9999 -RA FEW014 SCT036 12/11 A2975 RMK AO2 DZB17E18RAB18E29DZB29E31RAB31 SLP079 $
  • 231817Z AUTO 10004KT 9999 -DZ OVC033 12/11 A2977 RMK AO2 DZB17 SLP086 $
  • 231756Z AUTO 06003KT 9999 OVC033 12/11 A2977 RMK AO2 RAE1659DZB1659E02 SLP086 P0000 60000 T01180112 10125 20103 57017 $
  • 231717Z AUTO 08005KT 9999 SCT034 BKN048 12/11 A2978 RMK AO2 RAE1659DZB1659E02 SLP090 $
  • 231702Z AUTO 06004KT 9999 FEW040 SCT050 12/11 A2978 RMK AO2 RAE1659DZB1659E02 SLP090 $
  • 231647Z AUTO 06003KT 9999 -RA FEW040 BKN050 12/11 A2979 RMK AO2 RAB47 SLP093 $

Expired Forecast.



MET'MAP, your aeronautical weather chart ! - Copyright ORBIFLY December 2007 - Disclaimer

ORBIFLY MET'MAP TEAM :

Programming & Development : Alexandra Zaïnal
Concept & Development : Baudouin d'Aumeries
Co-Development & Prog : Marc-Olivier Méhu
Technical & hardware support : Manuel Goepfert

Contact : metmap@orbifly.com




SOURCES & CREDITS :

   NOAA